createdAt,value
2018-06-29T00:00:43.745Z,15.50
2018-06-29T00:03:12.207Z,15.50
2018-06-29T00:05:40.866Z,15.50
2018-06-29T00:08:09.359Z,15.50
2018-06-29T00:10:38.407Z,15.50
2018-06-29T00:13:07.491Z,15.50
2018-06-29T00:15:35.728Z,15.50
2018-06-29T00:18:04.407Z,15.40
2018-06-29T00:20:33.260Z,15.40
2018-06-29T00:25:29.892Z,15.40
2018-06-29T00:27:58.375Z,15.40
2018-06-29T00:30:26.934Z,15.40
2018-06-29T00:32:55.635Z,15.40
2018-06-29T00:35:24.266Z,15.50
2018-06-29T00:37:53.619Z,15.60
2018-06-29T00:40:22.124Z,15.70
2018-06-29T00:42:51.407Z,15.60
2018-06-29T00:45:19.975Z,15.50
2018-06-29T00:47:48.504Z,15.50
2018-06-29T00:50:17.151Z,15.40
2018-06-29T00:55:14.194Z,15.50
2018-06-29T00:57:43.897Z,15.70
2018-06-29T01:00:12.783Z,15.60
2018-06-29T01:02:41.280Z,15.60
2018-06-29T01:05:10.695Z,15.50
2018-06-29T01:07:39.255Z,15.50
2018-06-29T01:10:07.934Z,15.40
2018-06-29T01:12:37.128Z,15.40
2018-06-29T01:15:06.057Z,15.40
2018-06-29T01:17:34.585Z,15.40
2018-06-29T01:20:03.484Z,15.50
2018-06-29T01:22:32.052Z,15.40
2018-06-29T01:25:00.558Z,15.30
2018-06-29T01:27:29.728Z,15.30
2018-06-29T01:29:58.947Z,15.30
2018-06-29T01:32:27.980Z,15.30
2018-06-29T01:34:56.508Z,15.20
2018-06-29T01:37:25.219Z,15.30
2018-06-29T01:39:53.774Z,15.20
2018-06-29T01:42:22.335Z,15.30
2018-06-29T01:44:51.071Z,15.20
2018-06-29T01:47:19.980Z,15.20
2018-06-29T01:49:48.718Z,15.20
2018-06-29T01:52:18.118Z,15.20
2018-06-29T01:54:46.557Z,15.20
2018-06-29T01:57:15.077Z,15.20
2018-06-29T01:59:43.606Z,15.20
2018-06-29T02:02:12.112Z,15.20
2018-06-29T02:04:40.844Z,15.20
2018-06-29T02:07:09.613Z,15.20
2018-06-29T02:09:38.126Z,15.20
2018-06-29T02:12:06.808Z,15.20
2018-06-29T02:14:35.648Z,15.20
2018-06-29T02:17:04.350Z,15.20
2018-06-29T02:19:32.791Z,15.30
2018-06-29T02:22:01.371Z,15.40
2018-06-29T02:24:29.912Z,15.40
2018-06-29T02:26:59.287Z,15.50
2018-06-29T02:29:27.875Z,15.50
2018-06-29T02:31:56.346Z,15.60
2018-06-29T02:34:25.012Z,15.70
2018-06-29T02:36:54.374Z,15.60
2018-06-29T02:39:23.258Z,15.70
2018-06-29T02:41:51.811Z,15.60
2018-06-29T02:44:20.839Z,15.60
2018-06-29T02:46:50.049Z,15.60
2018-06-29T02:49:18.686Z,15.70
2018-06-29T02:51:47.268Z,15.60
2018-06-29T02:54:15.828Z,15.70
2018-06-29T02:56:44.642Z,15.70
2018-06-29T02:59:13.249Z,15.70
2018-06-29T03:01:41.784Z,15.60
2018-06-29T03:04:10.388Z,15.60
2018-06-29T03:06:38.972Z,15.70
2018-06-29T03:09:08.760Z,15.70
2018-06-29T03:11:37.734Z,15.70
2018-06-29T03:14:06.204Z,15.70
2018-06-29T03:16:34.980Z,15.70
2018-06-29T03:19:03.464Z,15.60
2018-06-29T03:21:31.978Z,15.60
2018-06-29T03:24:00.537Z,15.50
2018-06-29T03:26:29.305Z,15.50
2018-06-29T03:28:58.064Z,15.50
2018-06-29T03:31:26.626Z,15.50
2018-06-29T03:33:55.235Z,15.50
2018-06-29T03:36:23.792Z,15.50
2018-06-29T03:38:52.274Z,15.50
2018-06-29T03:41:21.226Z,15.50
2018-06-29T03:43:50.465Z,15.60
2018-06-29T03:46:19.035Z,15.60
2018-06-29T03:48:48.038Z,15.60
2018-06-29T03:51:16.699Z,15.70
2018-06-29T03:53:45.982Z,15.70
2018-06-29T03:56:14.489Z,15.70
2018-06-29T03:58:43.154Z,15.70
2018-06-29T04:01:12.042Z,15.70
2018-06-29T04:03:48.375Z,15.70
2018-06-29T04:06:17.297Z,15.70
2018-06-29T04:08:46.555Z,15.80
2018-06-29T04:11:15.251Z,15.70
2018-06-29T04:13:43.701Z,15.80
2018-06-29T04:16:12.267Z,15.80
2018-06-29T04:18:40.843Z,15.80
2018-06-29T04:21:09.308Z,15.80
2018-06-29T04:23:38.056Z,15.80
2018-06-29T04:26:06.872Z,15.90
2018-06-29T04:28:35.535Z,15.90
2018-06-29T04:31:04.016Z,16.10
2018-06-29T04:33:32.592Z,16.00
2018-06-29T04:36:01.905Z,16.20
2018-06-29T04:38:31.371Z,16.20
2018-06-29T04:40:59.930Z,16.40
2018-06-29T04:43:28.607Z,16.40
2018-06-29T04:45:57.108Z,16.30
2018-06-29T04:50:53.824Z,16.40
2018-06-29T04:53:22.520Z,16.40
2018-06-29T04:55:51.100Z,16.40
2018-06-29T04:58:20.246Z,16.40
2018-06-29T05:00:49.161Z,16.50
2018-06-29T05:03:17.892Z,16.50
2018-06-29T05:05:46.432Z,16.50
2018-06-29T05:08:15.048Z,16.60
2018-06-29T05:10:43.624Z,16.60
2018-06-29T05:13:12.252Z,16.60
2018-06-29T05:15:41.102Z,16.60
2018-06-29T05:18:09.756Z,16.70
2018-06-29T05:20:38.343Z,16.70
2018-06-29T05:23:07.752Z,16.70
2018-06-29T05:25:36.247Z,16.70
2018-06-29T05:28:05.196Z,16.80
2018-06-29T05:30:33.769Z,16.70
2018-06-29T05:33:02.415Z,16.70
2018-06-29T05:35:30.927Z,16.70
2018-06-29T05:37:59.526Z,16.70
2018-06-29T05:40:28.254Z,16.80
2018-06-29T05:42:56.811Z,16.90
2018-06-29T05:45:25.363Z,16.90
2018-06-29T05:47:53.999Z,17.00
2018-06-29T05:50:22.571Z,17.00
2018-06-29T05:52:51.160Z,17.10
2018-06-29T05:55:19.755Z,17.20
2018-06-29T05:57:48.295Z,17.30
2018-06-29T06:00:16.898Z,17.30
2018-06-29T06:02:45.489Z,17.30
2018-06-29T06:05:14.315Z,17.30
2018-06-29T06:07:43.043Z,17.30
2018-06-29T06:10:11.552Z,17.50
2018-06-29T06:12:40.271Z,17.70
2018-06-29T06:15:08.847Z,17.80
2018-06-29T06:17:37.451Z,17.90
2018-06-29T06:20:11.563Z,17.90
2018-06-29T06:22:40.166Z,18.00
2018-06-29T06:25:08.643Z,18.10
2018-06-29T06:27:37.615Z,18.20
2018-06-29T06:30:06.519Z,18.20
2018-06-29T06:32:35.196Z,18.20
2018-06-29T06:35:03.838Z,18.20
2018-06-29T06:40:01.420Z,18.40
2018-06-29T06:42:30.013Z,18.40
2018-06-29T06:44:59.620Z,18.40
2018-06-29T06:47:28.148Z,18.60
2018-06-29T06:49:56.651Z,18.80
2018-06-29T06:52:25.460Z,18.90
2018-06-29T06:54:54.295Z,19.00
2018-06-29T06:57:22.867Z,19.10
2018-06-29T06:59:51.480Z,19.20
2018-06-29T07:02:20.020Z,19.40
2018-06-29T07:04:49.389Z,19.40
2018-06-29T07:07:18.481Z,19.30
2018-06-29T07:12:15.277Z,19.20
2018-06-29T07:14:43.750Z,19.00
2018-06-29T07:17:12.290Z,19.20
2018-06-29T07:19:40.812Z,19.30
2018-06-29T07:22:09.541Z,19.40
2018-06-29T07:24:38.118Z,19.60
2018-06-29T07:27:07.013Z,19.80
2018-06-29T07:29:35.612Z,19.90
2018-06-29T07:32:04.069Z,19.60
2018-06-29T07:34:32.701Z,19.50
2018-06-29T07:37:01.260Z,19.50
2018-06-29T07:39:29.767Z,19.80
2018-06-29T07:41:58.291Z,20.00
2018-06-29T07:44:27.492Z,20.20
2018-06-29T07:46:56.094Z,20.20
2018-06-29T07:49:24.751Z,20.30
2018-06-29T07:51:53.308Z,20.50
2018-06-29T07:54:21.847Z,20.70
2018-06-29T07:56:50.424Z,20.80
2018-06-29T07:59:19.057Z,21.00
2018-06-29T08:01:48.179Z,21.10
2018-06-29T08:04:16.791Z,21.30
2018-06-29T08:06:46.349Z,21.30
2018-06-29T08:09:15.066Z,21.20
2018-06-29T08:11:43.539Z,21.20
2018-06-29T08:14:12.070Z,21.40
2018-06-29T08:16:41.219Z,21.40
2018-06-29T08:21:38.048Z,21.80
2018-06-29T08:24:06.531Z,22.10
2018-06-29T08:26:35.045Z,22.30
2018-06-29T08:29:03.565Z,22.50
2018-06-29T08:31:32.134Z,22.60
2018-06-29T08:34:00.716Z,22.30
2018-06-29T08:36:29.284Z,22.10
2018-06-29T08:38:57.797Z,22.00
2018-06-29T08:41:26.358Z,22.00
2018-06-29T08:43:55.478Z,21.90
2018-06-29T08:46:23.995Z,22.00
2018-06-29T08:48:52.558Z,22.00
2018-06-29T08:51:21.419Z,21.70
2018-06-29T08:53:49.914Z,21.80
2018-06-29T08:56:18.524Z,21.80
2018-06-29T08:58:47.166Z,21.80
2018-06-29T09:01:16.383Z,21.40
2018-06-29T09:03:45.049Z,21.40
2018-06-29T09:06:13.848Z,21.50
2018-06-29T09:08:42.436Z,21.70
2018-06-29T09:11:10.974Z,21.70
2018-06-29T09:13:39.518Z,22.00
2018-06-29T09:16:08.079Z,21.80
2018-06-29T09:18:36.663Z,22.00
2018-06-29T09:21:06.087Z,22.20
2018-06-29T09:23:35.079Z,22.50
2018-06-29T09:26:03.815Z,22.60
2018-06-29T09:28:32.319Z,22.90
2018-06-29T09:31:01.136Z,22.90
2018-06-29T09:33:29.645Z,22.80
2018-06-29T09:35:58.112Z,22.60
2018-06-29T09:38:26.583Z,22.70
2018-06-29T09:40:55.368Z,23.00
2018-06-29T09:43:24.580Z,23.20
2018-06-29T09:45:53.795Z,22.80
2018-06-29T09:48:22.296Z,22.90
2018-06-29T09:50:51.490Z,23.10
2018-06-29T09:53:20.079Z,23.30
2018-06-29T09:55:48.864Z,23.60
2018-06-29T09:58:17.350Z,23.60
2018-06-29T10:00:46.439Z,23.40
2018-06-29T10:05:43.378Z,24.00
2018-06-29T10:08:11.928Z,24.50
2018-06-29T10:10:40.480Z,24.80
2018-06-29T10:13:09.082Z,25.20
2018-06-29T10:15:37.683Z,25.50
2018-06-29T10:18:06.341Z,25.70
2018-06-29T10:20:34.845Z,25.60
2018-06-29T10:23:04.203Z,25.30
2018-06-29T10:25:33.611Z,24.90
2018-06-29T10:28:02.496Z,24.60
2018-06-29T10:30:30.995Z,24.10
2018-06-29T10:32:59.496Z,23.90
2018-06-29T10:35:28.172Z,24.10
2018-06-29T10:37:56.662Z,24.60
2018-06-29T10:40:25.350Z,25.10
2018-06-29T10:42:54.091Z,25.50
2018-06-29T10:45:23.275Z,25.70
2018-06-29T10:47:52.351Z,25.70
2018-06-29T10:50:20.898Z,25.80
2018-06-29T10:52:50.018Z,26.00
2018-06-29T10:55:19.019Z,26.10
2018-06-29T10:57:47.494Z,26.60
2018-06-29T11:00:16.183Z,26.40
2018-06-29T11:02:44.722Z,26.80
2018-06-29T11:05:13.418Z,26.50
2018-06-29T11:07:41.860Z,26.70
2018-06-29T11:10:10.384Z,26.50
2018-06-29T11:12:39.802Z,26.40
2018-06-29T11:15:08.834Z,26.10
2018-06-29T11:17:37.589Z,26.10
2018-06-29T11:20:06.065Z,26.00
2018-06-29T11:22:34.773Z,25.80
2018-06-29T11:25:03.965Z,25.50
2018-06-29T11:27:32.564Z,25.80
2018-06-29T11:30:01.044Z,26.40
2018-06-29T11:32:29.731Z,26.70
2018-06-29T11:34:58.879Z,27.00
2018-06-29T11:37:27.711Z,26.90
2018-06-29T11:39:56.394Z,27.10
2018-06-29T11:42:24.878Z,26.80
2018-06-29T11:44:53.544Z,26.60
2018-06-29T11:47:22.230Z,26.50
2018-06-29T11:49:50.905Z,26.70
2018-06-29T11:52:19.575Z,27.30
2018-06-29T11:54:48.257Z,27.80
2018-06-29T11:57:17.483Z,28.00
2018-06-29T11:59:46.118Z,27.70
2018-06-29T12:02:15.651Z,27.10
2018-06-29T12:04:44.244Z,26.60
2018-06-29T12:07:12.998Z,27.00
2018-06-29T12:09:42.385Z,27.70
2018-06-29T12:12:10.978Z,28.10
2018-06-29T12:14:39.612Z,28.80
2018-06-29T12:17:08.812Z,28.80
2018-06-29T12:19:37.292Z,28.80
2018-06-29T12:22:06.283Z,29.10
2018-06-29T12:24:35.084Z,29.50
2018-06-29T12:27:03.656Z,30.10
2018-06-29T12:29:32.392Z,30.20
2018-06-29T12:32:01.214Z,29.40
2018-06-29T12:34:29.795Z,29.30
2018-06-29T12:36:58.604Z,29.20
2018-06-29T12:39:27.276Z,28.10
2018-06-29T12:41:55.838Z,27.00
2018-06-29T12:44:24.632Z,27.60
2018-06-29T12:46:53.360Z,27.50
2018-06-29T12:49:22.245Z,27.60
2018-06-29T12:51:52.075Z,27.60
2018-06-29T12:54:20.597Z,27.80
2018-06-29T12:56:49.112Z,28.10
2018-06-29T12:59:18.627Z,28.70
2018-06-29T13:01:47.322Z,29.00
2018-06-29T13:04:16.208Z,29.00
2018-06-29T13:06:44.743Z,29.40
2018-06-29T13:09:13.372Z,29.80
2018-06-29T13:11:41.912Z,29.50
2018-06-29T13:14:10.536Z,29.40
2018-06-29T13:16:39.332Z,28.10
2018-06-29T13:19:07.926Z,27.30
2018-06-29T13:21:36.451Z,27.00
2018-06-29T13:24:05.281Z,27.30
2018-06-29T13:26:33.992Z,27.70
2018-06-29T13:29:02.720Z,27.80
2018-06-29T13:31:31.467Z,27.80
2018-06-29T13:34:00.174Z,28.40
2018-06-29T13:36:29.279Z,29.10
2018-06-29T13:38:58.017Z,29.30
2018-06-29T13:41:26.666Z,30.00
2018-06-29T13:43:55.360Z,30.20
2018-06-29T13:46:24.158Z,30.10
2018-06-29T13:48:53.500Z,29.50
2018-06-29T13:51:22.075Z,28.30
2018-06-29T13:53:50.836Z,28.30
2018-06-29T13:56:19.647Z,28.10
2018-06-29T13:58:48.220Z,27.70
2018-06-29T14:01:16.732Z,27.30
2018-06-29T14:03:45.855Z,28.00
2018-06-29T14:06:14.378Z,29.40
2018-06-29T14:08:43.199Z,30.80
2018-06-29T14:11:12.761Z,31.60
2018-06-29T14:13:41.434Z,32.50
2018-06-29T14:16:09.895Z,33.00
2018-06-29T14:18:38.539Z,32.30
2018-06-29T14:21:07.278Z,32.10
2018-06-29T14:23:36.117Z,32.90
2018-06-29T14:26:04.761Z,33.60
2018-06-29T14:28:33.508Z,35.30
2018-06-29T14:31:02.357Z,35.00
2018-06-29T14:33:31.024Z,35.60
2018-06-29T14:35:59.536Z,35.50
2018-06-29T14:38:28.452Z,35.10
2018-06-29T14:40:57.084Z,33.30
2018-06-29T14:43:25.811Z,32.20
2018-06-29T14:45:54.474Z,33.40
2018-06-29T14:48:24.847Z,33.20
2018-06-29T14:50:53.660Z,32.60
2018-06-29T14:53:22.392Z,32.40
2018-06-29T14:55:50.926Z,32.50
2018-06-29T14:58:19.664Z,32.20
2018-06-29T15:00:48.236Z,31.60
2018-06-29T15:03:16.840Z,31.30
2018-06-29T15:05:45.330Z,31.60
2018-06-29T15:08:13.939Z,31.90
2018-06-29T15:10:42.735Z,32.10
2018-06-29T15:13:11.240Z,32.40
2018-06-29T15:15:40.664Z,31.40
2018-06-29T15:18:09.371Z,33.10
2018-06-29T15:20:38.075Z,34.30
2018-06-29T15:23:06.605Z,34.60
2018-06-29T15:25:35.216Z,35.30
2018-06-29T15:28:03.911Z,35.90
2018-06-29T15:30:32.507Z,36.60
2018-06-29T15:33:01.239Z,34.80
2018-06-29T15:35:29.999Z,34.70
2018-06-29T15:37:58.686Z,33.60
2018-06-29T15:40:27.581Z,32.90
2018-06-29T15:42:56.190Z,32.40
2018-06-29T15:45:24.855Z,32.70
2018-06-29T15:47:53.556Z,33.40
2018-06-29T15:50:22.157Z,33.50
2018-06-29T15:52:50.807Z,33.60
2018-06-29T15:55:19.423Z,32.50
2018-06-29T15:57:48.804Z,31.60
2018-06-29T16:00:17.795Z,31.30
2018-06-29T16:02:46.388Z,32.40
2018-06-29T16:05:14.987Z,33.80
2018-06-29T16:07:43.608Z,35.30
2018-06-29T16:10:12.776Z,36.20
2018-06-29T16:12:42.028Z,37.00
2018-06-29T16:15:10.646Z,37.50
2018-06-29T16:17:39.453Z,37.30
2018-06-29T16:20:08.147Z,36.30
2018-06-29T16:22:36.883Z,35.90
2018-06-29T16:25:05.568Z,36.00
2018-06-29T16:27:34.324Z,35.80
2018-06-29T16:30:03.038Z,35.90
2018-06-29T16:32:31.586Z,35.50
2018-06-29T16:35:00.216Z,35.80
2018-06-29T16:37:29.254Z,35.30
2018-06-29T16:39:57.832Z,35.00
2018-06-29T16:42:26.899Z,35.10
2018-06-29T16:44:55.635Z,35.10
2018-06-29T16:47:24.438Z,34.50
2018-06-29T16:52:21.671Z,35.10
2018-06-29T16:54:50.284Z,34.90
2018-06-29T16:57:19.116Z,34.60
2018-06-29T16:59:47.744Z,32.70
2018-06-29T17:02:16.325Z,31.40
2018-06-29T17:04:45.133Z,30.40
2018-06-29T17:07:13.793Z,29.40
2018-06-29T17:09:42.286Z,28.70
2018-06-29T17:12:10.922Z,28.40
2018-06-29T17:14:39.900Z,28.20
2018-06-29T17:17:08.588Z,28.30
2018-06-29T17:19:37.432Z,29.20
2018-06-29T17:22:06.523Z,30.40
2018-06-29T17:27:03.983Z,32.00
2018-06-29T17:29:32.583Z,32.60
2018-06-29T17:32:01.208Z,33.10
2018-06-29T17:34:29.870Z,34.10
2018-06-29T17:36:59.292Z,34.40
2018-06-29T17:39:28.120Z,34.40
2018-06-29T17:41:57.120Z,34.10
2018-06-29T17:44:25.686Z,33.30
2018-06-29T17:46:55.081Z,33.60
2018-06-29T17:49:23.763Z,33.10
2018-06-29T17:51:52.376Z,33.20
2018-06-29T17:54:21.081Z,33.50
2018-06-29T17:56:49.754Z,33.20
2018-06-29T18:01:47.759Z,33.30
2018-06-29T18:04:16.639Z,33.40
2018-06-29T18:06:45.355Z,33.40
2018-06-29T18:09:14.012Z,33.20
2018-06-29T18:11:42.772Z,32.00
2018-06-29T18:14:11.971Z,30.70
2018-06-29T18:16:40.639Z,29.50
2018-06-29T18:19:09.241Z,28.70
2018-06-29T18:21:37.905Z,28.20
2018-06-29T18:24:07.294Z,27.70
2018-06-29T18:26:36.699Z,27.20
2018-06-29T18:29:05.820Z,26.90
2018-06-29T18:34:03.331Z,26.50
2018-06-29T18:36:32.680Z,26.20
2018-06-29T18:39:01.745Z,26.00
2018-06-29T18:41:30.283Z,25.80
2018-06-29T18:43:58.831Z,25.50
2018-06-29T18:46:27.348Z,25.40
2018-06-29T18:48:55.996Z,25.00
2018-06-29T18:51:24.809Z,24.90
2018-06-29T18:53:53.765Z,24.50
2018-06-29T18:56:22.506Z,24.10
2018-06-29T18:58:51.605Z,23.80
2018-06-29T19:01:20.510Z,23.40
2018-06-29T19:03:49.042Z,23.20
2018-06-29T19:08:46.155Z,22.80
2018-06-29T19:11:15.052Z,22.30
2018-06-29T19:13:44.003Z,21.90
2018-06-29T19:18:41.575Z,21.40
2018-06-29T19:21:10.269Z,21.30
2018-06-29T19:23:39.013Z,21.20
2018-06-29T19:26:07.769Z,21.10
2018-06-29T19:28:36.996Z,21.10
2018-06-29T19:31:06.800Z,20.90
2018-06-29T19:33:35.863Z,20.80
2018-06-29T19:36:04.665Z,20.60
2018-06-29T19:38:33.496Z,20.50
2018-06-29T19:41:02.140Z,20.40
2018-06-29T19:43:30.754Z,20.30
2018-06-29T19:45:59.389Z,20.20
2018-06-29T19:48:27.897Z,20.10
2018-06-29T19:50:56.436Z,20.00
2018-06-29T19:53:25.131Z,19.90
2018-06-29T19:55:53.786Z,19.80
2018-06-29T19:58:22.656Z,19.60
2018-06-29T20:00:51.450Z,19.40
2018-06-29T20:03:20.273Z,19.20
2018-06-29T20:05:48.927Z,19.10
2018-06-29T20:08:17.607Z,19.00
2018-06-29T20:10:46.259Z,18.90
2018-06-29T20:13:14.972Z,18.80
2018-06-29T20:15:43.781Z,18.80
2018-06-29T20:18:12.376Z,18.60
2018-06-29T20:20:41.476Z,18.50
2018-06-29T20:23:10.127Z,18.40
2018-06-29T20:25:38.775Z,18.30
2018-06-29T20:30:36.232Z,18.10
2018-06-29T20:33:05.064Z,17.90
2018-06-29T20:35:33.731Z,17.90
2018-06-29T20:38:02.507Z,17.80
2018-06-29T20:40:31.047Z,17.70
2018-06-29T20:42:59.888Z,17.50
2018-06-29T20:45:28.693Z,17.40
2018-06-29T20:47:57.471Z,17.40
2018-06-29T20:52:54.432Z,17.30
2018-06-29T20:55:23.300Z,17.30
2018-06-29T20:57:52.221Z,17.30
2018-06-29T21:00:20.787Z,17.20
2018-06-29T21:02:49.442Z,17.10
2018-06-29T21:05:18.025Z,16.90
2018-06-29T21:07:46.910Z,16.90
2018-06-29T21:10:15.935Z,16.90
2018-06-29T21:12:44.655Z,16.80
2018-06-29T21:15:14.608Z,16.70
2018-06-29T21:17:43.518Z,16.70
2018-06-29T21:20:12.360Z,16.60
2018-06-29T21:22:41.768Z,16.70
2018-06-29T21:25:10.401Z,16.60
2018-06-29T21:27:39.193Z,16.60
2018-06-29T21:30:08.471Z,16.50
2018-06-29T21:32:37.113Z,16.50
2018-06-29T21:35:06.360Z,16.40
2018-06-29T21:37:34.896Z,16.30
2018-06-29T21:40:04.598Z,16.20
2018-06-29T21:42:33.180Z,16.10
2018-06-29T21:45:02.012Z,16.20
2018-06-29T21:47:31.296Z,16.20
2018-06-29T21:50:00.364Z,16.10
2018-06-29T21:52:29.194Z,15.90
2018-06-29T21:54:57.753Z,15.80
2018-06-29T21:57:27.019Z,15.80
2018-06-29T21:59:55.696Z,15.80
2018-06-29T22:02:24.397Z,15.90
2018-06-29T22:04:52.971Z,15.90
2018-06-29T22:07:21.783Z,15.70
2018-06-29T22:09:50.483Z,15.50
2018-06-29T22:12:19.147Z,15.50
2018-06-29T22:14:47.922Z,15.50
2018-06-29T22:17:16.447Z,15.50
2018-06-29T22:19:45.103Z,15.50
2018-06-29T22:22:13.796Z,15.50
2018-06-29T22:24:42.354Z,15.50
2018-06-29T22:27:11.076Z,15.40
2018-06-29T22:29:39.653Z,15.30
2018-06-29T22:32:08.503Z,15.20
2018-06-29T22:34:37.155Z,15.20
2018-06-29T22:37:05.769Z,15.20
2018-06-29T22:39:34.299Z,15.10
2018-06-29T22:42:02.872Z,15.10
2018-06-29T22:44:31.558Z,14.90
2018-06-29T22:47:00.141Z,15.00
2018-06-29T22:49:28.637Z,15.00
2018-06-29T22:51:57.496Z,14.90
2018-06-29T22:54:26.220Z,14.90
2018-06-29T22:56:54.953Z,14.80
2018-06-29T22:59:23.571Z,14.70
2018-06-29T23:01:52.024Z,14.70
2018-06-29T23:04:20.644Z,14.70
2018-06-29T23:06:49.271Z,14.70
2018-06-29T23:09:17.990Z,14.70
2018-06-29T23:11:47.229Z,14.60
2018-06-29T23:14:15.920Z,14.50
2018-06-29T23:16:44.429Z,14.50
2018-06-29T23:19:12.903Z,14.60
2018-06-29T23:21:41.391Z,14.60
2018-06-29T23:24:09.905Z,14.60
2018-06-29T23:26:38.525Z,14.40
2018-06-29T23:29:07.932Z,14.20
2018-06-29T23:31:36.511Z,14.20
2018-06-29T23:34:05.236Z,14.20
2018-06-29T23:36:33.850Z,14.20
2018-06-29T23:39:03.112Z,14.10
2018-06-29T23:41:31.703Z,14.10
2018-06-29T23:44:00.420Z,14.10
2018-06-29T23:46:29.329Z,14.00
2018-06-29T23:48:57.942Z,13.90
2018-06-29T23:51:26.426Z,13.90
2018-06-29T23:53:55.043Z,13.90
2018-06-29T23:56:24.105Z,13.90
2018-06-29T23:58:52.694Z,13.90
